createdAt,value
2022-12-29T00:00:13.911Z,14.00
2022-12-29T00:02:41.852Z,10.00
2022-12-29T00:05:08.889Z,9.10
2022-12-29T00:07:35.739Z,7.40
2022-12-29T00:10:02.524Z,9.50
2022-12-29T00:12:49.220Z,9.60
2022-12-29T00:15:34.688Z,11.40
2022-12-29T00:18:02.513Z,7.00
2022-12-29T00:20:48.022Z,9.20
2022-12-29T00:23:33.438Z,7.10
2022-12-29T00:26:23.086Z,8.80
2022-12-29T00:29:10.054Z,6.30
2022-12-29T00:31:55.611Z,7.10
2022-12-29T00:34:41.173Z,7.40
2022-12-29T00:37:07.911Z,6.90
2022-12-29T00:39:53.288Z,8.60
2022-12-29T00:42:38.509Z,10.70
2022-12-29T00:45:05.855Z,8.00
2022-12-29T00:47:32.541Z,7.00
2022-12-29T00:49:59.308Z,7.60
2022-12-29T00:52:25.987Z,7.30
2022-12-29T00:54:52.698Z,9.60
2022-12-29T00:57:19.490Z,8.60
2022-12-29T00:59:46.428Z,9.80
2022-12-29T01:02:16.498Z,8.30
2022-12-29T01:07:10.250Z,14.50
2022-12-29T01:12:41.582Z,10.70
2022-12-29T01:15:15.084Z,14.00
2022-12-29T01:17:42.276Z,13.00
2022-12-29T01:20:09.717Z,12.90
2022-12-29T01:22:36.427Z,14.70
2022-12-29T01:25:04.434Z,13.60
2022-12-29T01:27:31.180Z,11.90
2022-12-29T01:29:58.212Z,14.30
2022-12-29T01:32:25.161Z,11.60
2022-12-29T01:34:51.873Z,13.20
2022-12-29T01:37:18.615Z,12.80
2022-12-29T01:39:45.332Z,12.70
2022-12-29T01:42:18.694Z,14.30
2022-12-29T01:44:58.765Z,13.50
2022-12-29T01:47:40.733Z,11.10
2022-12-29T01:50:17.131Z,13.20
2022-12-29T01:52:55.535Z,13.30
2022-12-29T01:55:23.210Z,11.50
2022-12-29T02:00:19.876Z,12.00
2022-12-29T02:02:52.931Z,12.00
2022-12-29T02:05:43.146Z,15.50
2022-12-29T02:08:14.255Z,12.50
2022-12-29T02:10:43.165Z,13.00
2022-12-29T02:13:10.266Z,13.10
2022-12-29T02:15:56.406Z,11.50
2022-12-29T02:18:54.862Z,9.50
2022-12-29T02:21:25.716Z,12.20
2022-12-29T02:24:19.041Z,10.50
2022-12-29T02:27:02.355Z,8.30
2022-12-29T02:29:52.491Z,11.00
2022-12-29T02:32:56.549Z,11.30
2022-12-29T02:35:59.476Z,10.10
2022-12-29T02:38:32.330Z,10.40
2022-12-29T02:41:07.925Z,10.10
2022-12-29T02:43:45.763Z,9.90
2022-12-29T02:46:37.296Z,11.60
2022-12-29T02:49:34.630Z,7.90
2022-12-29T02:52:07.978Z,11.00
2022-12-29T02:54:43.830Z,8.90
2022-12-29T02:57:23.244Z,10.20
2022-12-29T03:00:18.161Z,10.50
2022-12-29T03:02:54.434Z,10.70
2022-12-29T03:05:41.918Z,8.80
2022-12-29T03:08:14.600Z,9.80
2022-12-29T03:10:50.456Z,9.70
2022-12-29T03:14:14.945Z,12.40
2022-12-29T03:16:47.689Z,9.10
2022-12-29T03:19:36.144Z,9.50
2022-12-29T03:25:04.160Z,10.70
2022-12-29T03:27:43.537Z,8.60
2022-12-29T03:30:11.386Z,10.80
2022-12-29T03:32:47.010Z,16.10
2022-12-29T03:35:17.349Z,11.40
2022-12-29T03:37:51.351Z,11.50
2022-12-29T03:42:48.009Z,10.90
2022-12-29T03:45:17.250Z,9.00
2022-12-29T03:47:45.310Z,13.50
2022-12-29T03:50:15.227Z,11.10
2022-12-29T03:52:42.383Z,11.50
2022-12-29T03:55:09.746Z,9.00
2022-12-29T03:57:38.227Z,9.90
2022-12-29T04:00:08.611Z,10.50
2022-12-29T04:02:49.101Z,10.40
2022-12-29T04:05:20.780Z,12.00
2022-12-29T04:07:48.840Z,9.90
2022-12-29T04:10:15.609Z,12.70
2022-12-29T04:12:47.509Z,11.30
2022-12-29T04:15:14.671Z,13.60
2022-12-29T04:17:42.260Z,10.00
2022-12-29T04:20:29.005Z,12.10
2022-12-29T04:23:02.546Z,13.10
2022-12-29T04:25:29.829Z,13.60
2022-12-29T04:27:58.226Z,13.80
2022-12-29T04:30:47.868Z,12.50
2022-12-29T04:33:23.706Z,12.30
2022-12-29T04:35:50.446Z,15.00
2022-12-29T04:38:17.567Z,12.40
2022-12-29T04:40:47.285Z,12.90
2022-12-29T04:43:15.922Z,10.40
2022-12-29T04:46:21.023Z,10.80
2022-12-29T04:49:09.437Z,12.10
2022-12-29T04:51:55.120Z,14.30
2022-12-29T04:54:21.806Z,14.70
2022-12-29T04:57:01.608Z,17.10
2022-12-29T04:59:28.569Z,14.30
2022-12-29T05:01:58.370Z,13.80
2022-12-29T05:04:25.285Z,16.40
2022-12-29T05:09:19.540Z,16.10
2022-12-29T05:11:46.482Z,14.00
2022-12-29T05:16:41.711Z,13.30
2022-12-29T05:19:09.670Z,15.40
2022-12-29T05:21:36.376Z,15.10
2022-12-29T05:24:03.516Z,18.40
2022-12-29T05:26:30.272Z,18.10
2022-12-29T05:29:18.899Z,15.30
2022-12-29T05:31:45.768Z,15.20
2022-12-29T05:34:12.671Z,15.30
2022-12-29T05:39:10.287Z,15.90
2022-12-29T05:41:38.251Z,17.20
2022-12-29T05:44:14.284Z,14.50
2022-12-29T05:46:41.074Z,15.40
2022-12-29T05:49:15.532Z,18.00
2022-12-29T05:52:17.812Z,15.70
2022-12-29T05:54:45.864Z,16.10
2022-12-29T05:57:16.097Z,15.30
2022-12-29T05:59:47.030Z,18.50
2022-12-29T06:02:14.174Z,12.80
2022-12-29T06:04:42.004Z,18.00
2022-12-29T06:07:08.789Z,12.80
2022-12-29T06:09:41.625Z,20.20
2022-12-29T06:12:09.194Z,15.30
2022-12-29T06:14:37.889Z,17.30
2022-12-29T06:17:05.230Z,13.50
2022-12-29T06:19:32.815Z,15.10
2022-12-29T06:22:00.068Z,16.50
2022-12-29T06:24:28.486Z,16.70
2022-12-29T06:26:55.296Z,16.70
2022-12-29T06:29:22.082Z,18.90
2022-12-29T06:31:50.422Z,22.50
2022-12-29T06:34:17.256Z,18.40
2022-12-29T06:36:44.164Z,17.50
2022-12-29T06:39:12.080Z,15.80
2022-12-29T06:41:39.075Z,15.30
2022-12-29T06:44:14.798Z,14.80
2022-12-29T06:46:53.429Z,15.40
2022-12-29T06:49:20.164Z,17.10
2022-12-29T06:51:46.872Z,15.50
2022-12-29T06:54:14.012Z,12.70
2022-12-29T06:56:41.287Z,15.60
2022-12-29T06:59:08.324Z,14.00
2022-12-29T07:01:37.020Z,18.90
2022-12-29T07:04:04.757Z,15.30
2022-12-29T07:06:31.441Z,21.30
2022-12-29T07:08:58.480Z,18.00
2022-12-29T07:11:25.206Z,17.60
2022-12-29T07:13:52.437Z,18.20
2022-12-29T07:16:19.444Z,18.60
2022-12-29T07:18:46.143Z,17.50
2022-12-29T07:21:12.959Z,19.90
2022-12-29T07:23:39.683Z,18.30
2022-12-29T07:26:09.798Z,15.30
2022-12-29T07:28:39.077Z,17.10
2022-12-29T07:31:07.535Z,20.50
2022-12-29T07:33:34.330Z,32.30
2022-12-29T07:36:01.211Z,22.50
2022-12-29T07:38:27.928Z,25.50
2022-12-29T07:40:59.180Z,22.70
2022-12-29T07:43:26.106Z,21.30
2022-12-29T07:46:18.928Z,17.50
2022-12-29T07:48:57.908Z,15.50
2022-12-29T07:51:24.589Z,19.20
2022-12-29T07:53:51.320Z,19.00
2022-12-29T07:56:18.022Z,17.40
2022-12-29T07:58:44.845Z,19.00
2022-12-29T08:01:11.566Z,20.20
2022-12-29T08:03:39.469Z,22.10
2022-12-29T08:06:06.293Z,21.30
2022-12-29T08:08:32.972Z,21.00
2022-12-29T08:10:59.675Z,19.70
2022-12-29T08:13:26.354Z,18.50
2022-12-29T08:15:53.081Z,20.60
2022-12-29T08:18:19.820Z,17.40
2022-12-29T08:20:48.703Z,21.60
2022-12-29T08:23:17.862Z,17.50
2022-12-29T08:25:44.582Z,21.90
2022-12-29T08:28:11.249Z,17.00
2022-12-29T08:30:37.929Z,20.80
2022-12-29T08:33:04.653Z,20.40
2022-12-29T08:35:31.346Z,17.60
2022-12-29T08:37:58.047Z,20.30
2022-12-29T08:40:25.515Z,18.90
2022-12-29T08:42:52.216Z,18.70
2022-12-29T08:45:18.885Z,20.20
2022-12-29T08:47:45.611Z,16.60
2022-12-29T08:50:12.322Z,20.00
2022-12-29T08:52:39.360Z,22.80
2022-12-29T08:55:06.389Z,25.50
2022-12-29T08:57:33.273Z,20.00
2022-12-29T09:00:13.491Z,20.60
2022-12-29T09:02:40.392Z,18.30
2022-12-29T09:05:08.049Z,18.60
2022-12-29T09:07:34.775Z,18.00
2022-12-29T09:10:01.641Z,17.00
2022-12-29T09:12:34.493Z,21.50
2022-12-29T09:15:03.413Z,20.40
2022-12-29T09:17:43.419Z,22.60
2022-12-29T09:20:10.674Z,17.20
2022-12-29T09:22:37.862Z,20.20
2022-12-29T09:25:05.156Z,18.70
2022-12-29T09:27:32.122Z,19.60
2022-12-29T09:29:58.900Z,22.70
2022-12-29T09:32:28.556Z,19.00
2022-12-29T09:34:58.003Z,20.80
2022-12-29T09:37:24.818Z,21.20
2022-12-29T09:39:54.451Z,20.70
2022-12-29T09:42:40.188Z,19.30
2022-12-29T09:45:09.619Z,23.90
2022-12-29T09:47:37.266Z,22.30
2022-12-29T09:50:25.291Z,22.10
2022-12-29T09:52:56.411Z,18.80
2022-12-29T09:55:30.680Z,18.40
2022-12-29T09:58:06.457Z,20.40
2022-12-29T10:00:57.946Z,20.80
2022-12-29T10:03:29.182Z,19.60
2022-12-29T10:06:21.066Z,21.80
2022-12-29T10:09:09.616Z,20.80
2022-12-29T10:12:10.546Z,20.90
2022-12-29T10:14:59.184Z,18.50
2022-12-29T10:17:48.885Z,20.40
2022-12-29T10:20:27.380Z,22.00
2022-12-29T10:23:10.865Z,26.40
2022-12-29T10:25:40.145Z,24.30
2022-12-29T10:28:29.670Z,24.30
2022-12-29T10:31:05.095Z,22.30
2022-12-29T10:33:42.504Z,25.00
2022-12-29T10:36:18.806Z,21.00
2022-12-29T10:39:01.325Z,21.50
2022-12-29T10:41:47.238Z,21.20
2022-12-29T10:44:17.287Z,22.20
2022-12-29T10:46:45.357Z,20.50
2022-12-29T10:49:21.885Z,21.50
2022-12-29T10:51:53.017Z,20.80
2022-12-29T10:54:26.689Z,22.20
2022-12-29T10:56:58.753Z,22.20
2022-12-29T10:59:34.449Z,23.00
2022-12-29T11:02:12.424Z,21.50
2022-12-29T11:05:16.650Z,18.40
2022-12-29T11:07:43.492Z,28.90
2022-12-29T11:10:31.598Z,21.60
2022-12-29T11:13:12.040Z,21.70
2022-12-29T11:15:46.833Z,22.40
2022-12-29T11:18:19.729Z,35.20
2022-12-29T11:20:46.473Z,21.70
2022-12-29T11:23:33.347Z,24.50
2022-12-29T11:26:10.901Z,22.10
2022-12-29T11:28:41.934Z,25.60
2022-12-29T11:31:10.289Z,25.50
2022-12-29T11:33:39.124Z,23.10
2022-12-29T11:36:12.230Z,20.00
2022-12-29T11:38:47.171Z,22.80
2022-12-29T11:41:21.056Z,24.00
2022-12-29T11:43:48.709Z,24.00
2022-12-29T11:46:25.164Z,27.40
2022-12-29T11:48:51.949Z,28.40
2022-12-29T11:51:31.632Z,30.00
2022-12-29T11:54:01.634Z,29.80
2022-12-29T11:56:40.929Z,27.80
2022-12-29T11:59:37.670Z,31.00
2022-12-29T12:02:49.301Z,32.40
2022-12-29T12:05:34.748Z,34.90
2022-12-29T12:08:20.453Z,34.20
2022-12-29T12:11:17.591Z,35.00
2022-12-29T12:14:02.361Z,29.80
2022-12-29T12:16:38.417Z,33.60
2022-12-29T12:19:36.033Z,32.70
2022-12-29T12:22:17.446Z,35.00
2022-12-29T12:24:56.759Z,32.00
2022-12-29T12:28:06.843Z,31.80
2022-12-29T12:30:50.082Z,34.70
2022-12-29T12:33:16.766Z,31.90
2022-12-29T12:36:03.322Z,36.50
2022-12-29T12:41:10.864Z,31.50
2022-12-29T12:43:50.628Z,32.80
2022-12-29T12:46:56.380Z,30.80
2022-12-29T12:49:42.183Z,31.80
2022-12-29T12:52:27.075Z,32.10
2022-12-29T12:54:53.713Z,32.40
2022-12-29T12:57:36.964Z,32.60
2022-12-29T13:00:12.559Z,34.30
2022-12-29T13:02:39.487Z,32.10
2022-12-29T13:05:44.132Z,34.20
2022-12-29T13:08:38.697Z,33.80
2022-12-29T13:11:23.434Z,31.40
2022-12-29T13:14:02.172Z,33.30
2022-12-29T13:16:52.293Z,33.30
2022-12-29T13:19:47.327Z,34.50
2022-12-29T13:22:40.531Z,32.50
2022-12-29T13:25:28.590Z,39.50
2022-12-29T13:28:20.528Z,35.80
2022-12-29T13:31:25.103Z,34.40
2022-12-29T13:34:01.891Z,31.60
2022-12-29T13:36:38.528Z,35.00
2022-12-29T13:39:22.739Z,33.70
2022-12-29T13:41:54.826Z,35.40
2022-12-29T13:44:44.833Z,35.20
2022-12-29T13:47:26.028Z,37.10
2022-12-29T13:49:53.808Z,34.40
2022-12-29T13:52:44.528Z,41.60
2022-12-29T13:55:38.898Z,36.00
2022-12-29T13:58:24.278Z,34.10
2022-12-29T14:01:09.400Z,33.50
2022-12-29T14:03:45.619Z,36.40
2022-12-29T14:06:41.565Z,35.70
2022-12-29T14:09:35.051Z,36.00
2022-12-29T14:12:02.218Z,35.10
2022-12-29T14:14:32.641Z,35.40
2022-12-29T14:17:25.570Z,33.40
2022-12-29T14:19:54.871Z,37.50
2022-12-29T14:22:32.727Z,33.80
2022-12-29T14:25:01.227Z,35.20
2022-12-29T14:27:30.822Z,31.00
2022-12-29T14:29:57.605Z,32.80
2022-12-29T14:32:27.359Z,33.50
2022-12-29T14:34:56.550Z,35.60
2022-12-29T14:37:25.782Z,39.10
2022-12-29T14:40:03.737Z,35.80
2022-12-29T14:42:32.074Z,40.50
2022-12-29T14:45:09.026Z,46.40
2022-12-29T14:47:42.478Z,32.30
2022-12-29T14:50:12.096Z,37.00
2022-12-29T14:53:02.554Z,35.00
2022-12-29T14:55:38.531Z,29.50
2022-12-29T14:58:13.696Z,34.90
2022-12-29T15:00:42.536Z,33.00
2022-12-29T15:03:15.223Z,34.80
2022-12-29T15:05:47.388Z,35.50
2022-12-29T15:08:18.926Z,38.10
2022-12-29T15:11:21.844Z,34.20
2022-12-29T15:13:50.035Z,32.90
2022-12-29T15:16:32.464Z,38.00
2022-12-29T15:19:00.482Z,35.70
2022-12-29T15:21:33.046Z,31.80
2022-12-29T15:24:00.656Z,36.60
2022-12-29T15:29:41.032Z,35.50
2022-12-29T15:32:29.752Z,36.80
2022-12-29T15:35:02.302Z,36.10
2022-12-29T15:37:34.707Z,37.00
2022-12-29T15:40:01.485Z,33.70
2022-12-29T15:42:37.480Z,41.70
2022-12-29T15:45:12.130Z,63.90
2022-12-29T15:47:41.108Z,71.30
2022-12-29T15:50:36.283Z,62.70
2022-12-29T15:53:04.414Z,46.00
2022-12-29T15:55:36.433Z,37.80
2022-12-29T15:58:06.087Z,30.70
2022-12-29T16:00:38.624Z,35.40
2022-12-29T16:03:07.611Z,31.30
2022-12-29T16:05:40.157Z,34.20
2022-12-29T16:08:41.132Z,35.70
2022-12-29T16:11:25.867Z,31.40
2022-12-29T16:13:54.862Z,34.40
2022-12-29T16:16:29.452Z,37.10
2022-12-29T16:18:58.389Z,33.50
2022-12-29T16:21:36.594Z,33.50
2022-12-29T16:24:07.887Z,41.00
2022-12-29T16:26:34.863Z,41.10
2022-12-29T16:29:06.263Z,37.10
2022-12-29T16:31:33.025Z,29.90
2022-12-29T16:34:10.729Z,34.60
2022-12-29T16:36:53.147Z,37.30
2022-12-29T16:39:27.522Z,35.60
2022-12-29T16:41:55.320Z,39.10
2022-12-29T16:44:32.111Z,37.20
2022-12-29T16:46:59.262Z,39.60
2022-12-29T16:49:27.121Z,36.50
2022-12-29T16:51:56.016Z,40.70
2022-12-29T16:54:33.086Z,38.50
2022-12-29T16:57:00.328Z,34.30
2022-12-29T16:59:39.454Z,37.40
2022-12-29T17:02:16.406Z,38.00
2022-12-29T17:04:43.398Z,28.80
2022-12-29T17:07:21.915Z,30.40
2022-12-29T17:09:49.046Z,37.70
2022-12-29T17:12:20.445Z,33.10
2022-12-29T17:14:56.981Z,36.50
2022-12-29T17:17:33.952Z,32.90
2022-12-29T17:20:16.107Z,37.50
2022-12-29T17:22:42.988Z,38.50
2022-12-29T17:25:14.906Z,36.70
2022-12-29T17:27:43.433Z,39.30
2022-12-29T17:30:20.462Z,41.00
2022-12-29T17:32:51.815Z,33.00
2022-12-29T17:35:20.951Z,37.20
2022-12-29T17:37:48.293Z,35.10
2022-12-29T17:40:17.636Z,38.50
2022-12-29T17:42:54.433Z,39.40
2022-12-29T17:45:23.900Z,38.80
2022-12-29T17:47:50.729Z,39.80
2022-12-29T17:50:20.669Z,37.70
2022-12-29T17:53:00.753Z,36.80
2022-12-29T17:55:36.715Z,37.20
2022-12-29T17:58:23.810Z,40.10
2022-12-29T18:00:56.203Z,38.70
2022-12-29T18:03:33.193Z,37.40
2022-12-29T18:06:00.988Z,39.20
2022-12-29T18:10:57.883Z,34.10
2022-12-29T18:13:35.794Z,38.30
2022-12-29T18:16:12.127Z,35.60
2022-12-29T18:18:38.866Z,33.30
2022-12-29T18:21:05.977Z,41.10
2022-12-29T18:23:37.319Z,37.30
2022-12-29T18:26:07.822Z,34.70
2022-12-29T18:28:34.551Z,37.50
2022-12-29T18:31:02.185Z,37.10
2022-12-29T18:33:29.868Z,36.40
2022-12-29T18:35:57.823Z,40.20
2022-12-29T18:38:24.580Z,31.70
2022-12-29T18:40:52.084Z,38.70
2022-12-29T18:43:20.055Z,40.30
2022-12-29T18:45:47.254Z,41.90
2022-12-29T18:48:15.447Z,37.80
2022-12-29T18:50:42.517Z,35.00
2022-12-29T18:53:17.471Z,39.30
2022-12-29T18:55:44.197Z,40.50
2022-12-29T18:58:10.959Z,42.00
2022-12-29T19:00:38.831Z,44.60
2022-12-29T19:03:06.141Z,46.60
2022-12-29T19:05:38.910Z,39.70
2022-12-29T19:08:07.307Z,37.40
2022-12-29T19:10:34.899Z,41.70
2022-12-29T19:15:31.832Z,40.10
2022-12-29T19:18:41.986Z,45.50
2022-12-29T19:20:49.725Z,41.50
2022-12-29T19:23:19.417Z,39.00
2022-12-29T19:25:47.175Z,36.60
2022-12-29T19:28:23.004Z,39.80
2022-12-29T19:30:52.869Z,42.20
2022-12-29T19:33:21.859Z,41.90
2022-12-29T19:35:49.469Z,39.60
2022-12-29T19:38:16.601Z,38.90
2022-12-29T19:40:46.280Z,37.20
2022-12-29T19:43:13.938Z,43.10
2022-12-29T19:45:42.191Z,57.10
2022-12-29T19:48:13.944Z,53.40
2022-12-29T19:50:40.723Z,51.30
2022-12-29T19:53:07.444Z,48.40
2022-12-29T19:55:34.207Z,49.30
2022-12-29T19:58:00.931Z,40.50
2022-12-29T20:00:27.641Z,38.90
2022-12-29T20:05:22.047Z,44.00
2022-12-29T20:07:48.727Z,43.10
2022-12-29T20:10:15.418Z,42.70
2022-12-29T20:12:42.543Z,41.50
2022-12-29T20:15:13.472Z,37.30
2022-12-29T20:20:26.835Z,41.70
2022-12-29T20:22:54.252Z,41.40
2022-12-29T20:30:36.046Z,41.10
2022-12-29T20:35:35.470Z,40.40
2022-12-29T20:38:02.149Z,44.90
2022-12-29T20:40:28.859Z,46.80
2022-12-29T20:42:55.694Z,50.40
2022-12-29T20:45:22.369Z,42.50
2022-12-29T20:47:49.101Z,42.80
2022-12-29T20:50:15.861Z,40.80
2022-12-29T20:52:42.631Z,42.90
2022-12-29T20:55:09.753Z,40.40
2022-12-29T20:58:05.561Z,35.10
2022-12-29T21:00:23.282Z,39.00
2022-12-29T21:02:50.345Z,39.60
2022-12-29T21:05:24.046Z,40.30
2022-12-29T21:07:51.663Z,34.20
2022-12-29T21:10:18.536Z,34.00
2022-12-29T21:12:45.406Z,41.30
2022-12-29T21:15:14.534Z,38.40
2022-12-29T21:17:42.961Z,38.30
2022-12-29T21:20:19.691Z,40.30
2022-12-29T21:22:47.804Z,37.60
2022-12-29T21:25:14.777Z,44.00
2022-12-29T21:27:44.865Z,39.00
2022-12-29T21:30:12.561Z,41.70
2022-12-29T21:32:40.367Z,37.70
2022-12-29T21:35:08.575Z,34.30
2022-12-29T21:37:36.339Z,38.30
2022-12-29T21:40:04.786Z,34.10
2022-12-29T21:42:32.179Z,42.00
2022-12-29T21:45:20.884Z,34.70
2022-12-29T21:48:06.970Z,40.60
2022-12-29T21:50:33.729Z,41.10
2022-12-29T21:53:00.460Z,37.10
2022-12-29T21:55:27.179Z,36.10
2022-12-29T21:58:32.271Z,34.80
2022-12-29T22:01:17.650Z,35.30
2022-12-29T22:04:03.377Z,37.30
2022-12-29T22:06:49.056Z,32.70
2022-12-29T22:09:39.952Z,37.00
2022-12-29T22:12:28.448Z,35.80
2022-12-29T22:14:55.161Z,34.40
2022-12-29T22:17:26.242Z,35.10
2022-12-29T22:19:55.433Z,32.40
2022-12-29T22:22:22.149Z,32.70
2022-12-29T22:24:48.832Z,31.70
2022-12-29T22:27:15.934Z,29.10
2022-12-29T22:29:42.635Z,26.70
2022-12-29T22:32:09.391Z,28.80
2022-12-29T22:34:36.091Z,24.20
2022-12-29T22:37:02.845Z,24.60
2022-12-29T22:39:29.775Z,24.50
2022-12-29T22:41:56.519Z,24.90
2022-12-29T22:44:23.245Z,25.10
2022-12-29T22:46:50.040Z,25.60
2022-12-29T22:49:16.807Z,22.70
2022-12-29T22:51:43.469Z,20.60
2022-12-29T22:54:10.206Z,24.60
2022-12-29T22:56:42.112Z,27.20
2022-12-29T22:59:10.774Z,24.70
2022-12-29T23:01:38.662Z,24.40
2022-12-29T23:04:55.748Z,24.10
2022-12-29T23:06:53.099Z,27.40
2022-12-29T23:09:23.042Z,25.70
2022-12-29T23:11:50.337Z,24.00
2022-12-29T23:14:17.481Z,25.30
2022-12-29T23:16:44.478Z,23.20
2022-12-29T23:19:12.673Z,24.30
2022-12-29T23:21:39.905Z,26.40
2022-12-29T23:24:11.544Z,21.80
2022-12-29T23:26:41.965Z,24.10
2022-12-29T23:29:12.397Z,24.80
2022-12-29T23:31:39.895Z,25.80
2022-12-29T23:34:08.672Z,25.50
2022-12-29T23:36:35.768Z,25.10
2022-12-29T23:39:03.159Z,23.80
2022-12-29T23:41:29.967Z,22.50
2022-12-29T23:43:57.061Z,19.50
2022-12-29T23:46:29.438Z,21.80
2022-12-29T23:48:56.229Z,21.50
2022-12-29T23:51:22.975Z,19.40
2022-12-29T23:53:49.723Z,20.50
2022-12-29T23:56:19.456Z,22.70
2022-12-29T23:58:46.930Z,18.50
